Las Vegas, NM

8:12 AM MDT en Septiembre 22, 2014 (GMT -0600)
Angel Fire | Change Station
CLOSE
Current Station
Aeropuerto
Location: Angel Fire,
Altura: 8379 ft
Estaciones meteorológicas cercanas

Alt 8379 ft 36.42 °N, 105.29 °W | Updated 17 minutes ago

Nublado
Nublado
54 ° F
Sensación térmica 54 ° F
N
4
Viento Variable Viento desde Sur

Hoy
Alta -- | Baja -- ° F
--% Posibilidad de precipitaciones
Ayer
Alta -- | Baja -- ° F
Precip. -- pul
6:48 AM 6:57 PM
Creciente menguante, 3% visible
Presión 30.48 pul
Visibilidad 10.0 Millas
Nubes Nublado 3300 ft
Punto de rocío 50 ° F
Humedad 86%
Precipitaciones 0.00 pul
Espesor de la nieve 1 in , 0 in , 1 in
UV 0 de una escala de 12
Polen 2.60 de una escala de 12
Calidad del aire No disponible.
Flu Activity No disponible.
METAR KAXX 221355Z AUTO 19003KT 10SM OVC033 12/10 A3048 RMK AO2 T01200098

More Conditions Fewer Conditions

Presión 30.48 pul
Visibilidad 10.0 Millas
Nubes Nublado 3300 ft
Punto de rocío 50 ° F
Humedad 86%
Precipitaciones 0.00 pul
Espesor de la nieve 1 in , 0 in , 1 in
UV 0 de una escala de 12
Polen 2.60 de una escala de 12
Calidad del aire No disponible.
Flu Activity No disponible.
METAR KAXX 221355Z AUTO 19003KT 10SM OVC033 12/10 A3048 RMK AO2 T01200098

More Conditions Fewer Conditions

10-Day Weather Forecast

Almanac

Astronomía

Sep. 22, 2014 Salida Puesta
Hora real 6:48 AM MDT 6:57 PM MDT
Crepúsculo civil 6:23 AM MDT 7:22 PM MDT
Crepúsculo náutico 5:53 AM MDT 7:52 PM MDT
Crepúsculo astronómico 5:23 AM MDT 8:22 PM MDT
Luna 5:21 AM MDT 6:05 PM MDT
Horas de luz 12h 59m
Horas de luz
12h 08m
Tomorrow will be 2m 14s shorter.
Creciente menguante, 3% of the Moon is Illuminated
Hoy
Creciente menguante
Sep 24
Nueva
Oct 1
Cuarto creciente
Oct 8
Luna llena
Oct 15
Cuarto menguante

Extremos de hoy

Máximos del estado Bajos del estado

Community

WunderPhotos

Upload Photos

1,755,444 ¡fotos cargadas!

WunderBlogs® & News

By Dr. Jeff Masters
Director of Meteorology, Weather Underground
By Kari Strenfel
Meteorologist, Weather Underground
By Christopher C. Burt
Weather Historian, Weather Underground
September 22, 2014
September 22, 2014
September 22, 2014

Nearby

Grosos de nieve

Estación Profundido Altura
Red River Pass #2 0 in 9850 ft
Signal Peak 1 in 8360 ft
Senorita Divide #2 0 in 8600 ft
Quemazon 1 in 9500 ft
Wesner Springs 2 in 11120 ft

Actividad de terremotos

Ciudad Distance Mag. Tiempo y dato
No hay informes recientes de la actividad sísmica.
Magnitud mínima muestra es 2,5.

Temperaturas de aguas costeras

Lugar Temperatura
Sin partes meteorológicos de las estaciones

Estaciones meteorológicas cercanas